Time;durP1;ratioP1;P1;durP2;ratioP2;P2;SDS_P1;SDS_P2;PMS_P1;PMS_P2;Temp;Humidity;BMP_temperature;BMP_pressure;BME280_temperature;BME280_humidity;BME280_pressure;Samples;Min_cycle;Max_cycle;Signal;HPM_P1;HPM_P2
2021/09/13 00:02:19;;;;;;;9.73;8.35;;;;;;;17.61;79.43;96405.78;5050055;28;20041;-75
2021/09/13 00:04:46;;;;;;;12.48;8.90;;;;;;;17.61;79.66;96395.56;5050214;28;20052;-76
2021/09/13 00:07:12;;;;;;;10.13;8.88;;;;;;;17.62;79.52;96396.34;5052028;28;20503;-76
2021/09/13 00:09:39;;;;;;;10.52;8.90;;;;;;;17.62;78.76;96402.66;5053907;28;20051;-76
2021/09/13 00:12:06;;;;;;;11.52;8.32;;;;;;;17.61;78.72;96403.03;5053467;28;20048;-76
2021/09/13 00:14:34;;;;;;;11.30;9.02;;;;;;;17.57;78.44;96400.19;5053803;28;20072;-77
2021/09/13 00:17:01;;;;;;;11.65;9.18;;;;;;;17.50;78.90;96400.06;5054032;28;20527;-76
2021/09/13 00:19:27;;;;;;;13.13;9.95;;;;;;;17.41;79.50;96403.00;5056178;28;20400;-76
2021/09/13 00:21:54;;;;;;;12.45;9.38;;;;;;;17.39;80.04;96405.34;5053799;28;20037;-76
2021/09/13 00:24:20;;;;;;;12.55;9.20;;;;;;;17.43;80.33;96402.66;5053102;28;20048;-76
2021/09/13 00:26:47;;;;;;;10.15;8.82;;;;;;;17.42;80.59;96407.34;5053549;28;20550;-76
2021/09/13 00:29:13;;;;;;;11.20;8.90;;;;;;;17.39;80.29;96410.84;5052989;28;20045;-76
2021/09/13 00:31:41;;;;;;;13.10;9.52;;;;;;;17.38;80.42;96409.25;5053611;28;20041;-76
2021/09/13 00:34:08;;;;;;;11.15;9.35;;;;;;;17.37;80.40;96401.34;5052885;28;20484;-75
2021/09/13 00:36:34;;;;;;;12.40;9.68;;;;;;;17.39;80.78;96408.09;5053481;28;20041;-76
2021/09/13 00:39:01;;;;;;;12.68;10.25;;;;;;;17.44;80.83;96409.78;5053652;28;20416;-76
2021/09/13 00:41:28;;;;;;;10.18;8.73;;;;;;;17.52;80.43;96413.47;5053446;28;20051;-76
2021/09/13 00:43:54;;;;;;;10.30;9.00;;;;;;;17.52;80.64;96416.22;5053181;28;20045;-76
2021/09/13 00:46:21;;;;;;;12.57;10.55;;;;;;;17.47;79.56;96422.78;5052683;28;21883;-76
2021/09/13 00:48:49;;;;;;;12.93;11.52;;;;;;;17.39;79.90;96427.38;5053857;28;20052;-75
2021/09/13 00:51:15;;;;;;;15.20;11.70;;;;;;;17.27;80.21;96430.22;5054405;28;20049;-75
2021/09/13 00:53:42;;;;;;;15.73;12.65;;;;;;;17.12;80.22;96422.81;5053116;28;20048;-76
2021/09/13 00:56:09;;;;;;;16.20;12.57;;;;;;;17.05;80.72;96417.16;5052731;28;20044;-75
2021/09/13 00:58:37;;;;;;;18.50;12.93;;;;;;;17.13;80.81;96424.41;5053117;28;20402;-75
2021/09/13 01:01:05;;;;;;;17.15;13.48;;;;;;;17.12;80.91;96420.88;5052445;28;20052;-75
2021/09/13 01:03:31;;;;;;;15.93;12.43;;;;;;;17.11;81.11;96419.25;5052938;28;20044;-76
2021/09/13 01:05:59;;;;;;;17.35;13.35;;;;;;;17.14;81.42;96415.00;5052916;28;20511;-76
2021/09/13 01:08:26;;;;;;;17.60;14.05;;;;;;;17.19;81.72;96417.47;5052343;28;20049;-76
2021/09/13 01:10:55;;;;;;;17.40;12.90;;;;;;;17.21;81.55;96415.16;5052684;28;20487;-75
2021/09/13 01:13:21;;;;;;;14.27;11.75;;;;;;;17.21;81.36;96413.19;5052367;28;20051;-75
2021/09/13 01:15:48;;;;;;;13.73;11.35;;;;;;;17.22;81.33;96411.25;5052734;28;20057;-77
2021/09/13 01:18:14;;;;;;;15.73;12.73;;;;;;;17.26;81.46;96406.63;5052098;28;20053;-76
2021/09/13 01:20:41;;;;;;;14.38;12.35;;;;;;;17.36;81.02;96411.56;5055436;28;20052;-76
2021/09/13 01:23:10;;;;;;;17.02;12.13;;;;;;;17.36;80.39;96411.56;5052225;28;20044;-76
2021/09/13 01:25:38;;;;;;;15.10;11.80;;;;;;;17.35;80.39;96409.97;5052495;28;20048;-76
2021/09/13 01:28:05;;;;;;;15.75;11.82;;;;;;;17.31;80.45;96400.84;5052156;28;20049;-76
2021/09/13 01:30:33;;;;;;;14.60;12.23;;;;;;;17.32;80.91;96404.38;5052412;28;20049;-75
2021/09/13 01:32:59;;;;;;;15.57;11.57;;;;;;;17.34;81.06;96413.88;5052261;28;20496;-78
2021/09/13 01:35:26;;;;;;;13.73;12.23;;;;;;;17.40;80.21;96412.44;5051963;28;20064;-76
2021/09/13 01:37:52;;;;;;;13.65;12.13;;;;;;;17.42;80.04;96407.34;5052382;28;20041;-76
2021/09/13 01:40:19;;;;;;;13.68;10.95;;;;;;;17.43;80.11;96414.44;5051841;28;20045;-76
2021/09/13 01:42:47;;;;;;;13.23;11.23;;;;;;;17.39;80.36;96410.84;5052139;28;20037;-77
2021/09/13 01:45:13;;;;;;;13.55;11.32;;;;;;;17.38;79.95;96403.75;5051668;28;20048;-75
2021/09/13 01:47:41;;;;;;;15.98;12.65;;;;;;;17.34;80.04;96411.13;5052131;28;20399;-76
2021/09/13 01:50:09;;;;;;;16.02;11.82;;;;;;;17.24;79.94;96408.94;5052062;28;20041;-75
2021/09/13 01:52:35;;;;;;;15.30;12.55;;;;;;;17.17;80.09;96403.25;5051734;28;20041;-77
2021/09/13 01:55:02;;;;;;;18.90;13.65;;;;;;;17.12;80.33;96401.63;5050710;28;20051;-74
2021/09/13 01:57:28;;;;;;;15.27;12.82;;;;;;;17.10;80.80;96403.91;5052108;28;20045;-75
2021/09/13 01:59:56;;;;;;;16.88;12.98;;;;;;;17.08;81.13;96399.94;5051766;28;20053;-75
2021/09/13 02:02:23;;;;;;;14.93;13.00;;;;;;;17.08;81.20;96399.94;5051291;28;20381;-77
2021/09/13 02:04:49;;;;;;;15.95;12.95;;;;;;;17.08;81.14;96400.72;5051764;28;20423;-77
2021/09/13 02:07:16;;;;;;;13.68;12.02;;;;;;;17.10;80.64;96401.16;5051545;28;20045;-76
2021/09/13 02:09:42;;;;;;;17.42;12.88;;;;;;;17.10;80.41;96408.63;5051820;28;20044;-77
2021/09/13 02:12:09;;;;;;;17.45;13.20;;;;;;;17.04;80.45;96404.56;5051268;28;20546;-76
2021/09/13 02:14:35;;;;;;;15.95;13.07;;;;;;;16.97;80.74;96402.44;5051786;28;20037;-76
2021/09/13 02:17:03;;;;;;;15.30;13.27;;;;;;;16.94;80.95;96406.69;5051012;28;20052;-76
2021/09/13 02:19:30;;;;;;;16.02;12.55;;;;;;;16.97;80.63;96398.91;5051997;28;20407;-76
2021/09/13 02:21:56;;;;;;;14.60;11.43;;;;;;;16.99;80.70;96404.84;5051661;28;20400;-77
2021/09/13 02:24:23;;;;;;;15.98;12.75;;;;;;;16.92;80.92;96406.25;5052572;28;20518;-77
2021/09/13 02:26:49;;;;;;;14.68;12.07;;;;;;;16.86;80.97;96401.38;5051554;28;20419;-77
2021/09/13 02:29:16;;;;;;;15.77;11.85;;;;;;;16.79;81.22;96401.22;5050557;28;20041;-77
2021/09/13 02:31:43;;;;;;;16.83;12.32;;;;;;;16.74;81.34;96404.25;5051428;28;20048;-76
2021/09/13 02:34:11;;;;;;;15.98;13.18;;;;;;;16.73;81.68;96406.19;5050952;28;20056;-75
2021/09/13 02:36:37;;;;;;;16.15;12.52;;;;;;;16.73;81.87;96406.19;5051348;28;20037;-75
2021/09/13 02:39:04;;;;;;;15.02;11.90;;;;;;;16.78;81.13;96396.88;5050868;28;20467;-75
2021/09/13 02:41:30;;;;;;;14.95;11.98;;;;;;;16.76;80.77;96396.41;5051298;28;20048;-76
2021/09/13 02:43:57;;;;;;;15.20;11.88;;;;;;;16.67;80.92;96396.59;5051155;28;20048;-75
2021/09/13 02:46:23;;;;;;;15.05;12.25;;;;;;;16.63;81.04;96395.72;5050530;28;20067;-75
2021/09/13 02:48:50;;;;;;;15.07;11.95;;;;;;;16.62;81.29;96388.63;5051147;28;20040;-75
2021/09/13 02:51:18;;;;;;;14.38;11.90;;;;;;;16.61;81.54;96392.53;5050591;28;20048;-76
2021/09/13 02:53:44;;;;;;;14.52;11.20;;;;;;;16.57;81.57;96391.63;5052356;28;20045;-75
2021/09/13 02:56:11;;;;;;;16.20;11.55;;;;;;;16.54;81.54;96392.34;5050550;28;20041;-76
2021/09/13 02:58:37;;;;;;;14.50;11.88;;;;;;;16.58;81.33;96390.47;5050897;28;20044;-75
2021/09/13 03:01:04;;;;;;;14.18;11.75;;;;;;;16.59;81.26;96395.59;5050546;28;20491;-77
2021/09/13 03:03:30;;;;;;;16.15;11.30;;;;;;;16.57;81.23;96397.13;5050964;28;20590;-76
2021/09/13 03:05:57;;;;;;;16.02;12.48;;;;;;;16.52;81.20;96394.66;5050964;28;20049;-75
2021/09/13 03:08:25;;;;;;;14.23;11.38;;;;;;;16.46;81.26;96390.56;5050418;28;20045;-75
2021/09/13 03:10:51;;;;;;;17.17;12.57;;;;;;;16.42;81.59;96391.28;5050969;28;20045;-76
2021/09/13 03:13:18;;;;;;;15.75;11.88;;;;;;;16.49;81.83;96384.34;5050540;28;20507;-75
2021/09/13 03:15:45;;;;;;;13.02;10.93;;;;;;;16.54;81.44;96395.09;5050954;28;20045;-75
2021/09/13 03:18:11;;;;;;;14.50;11.13;;;;;;;16.53;80.92;96397.03;5050212;28;20058;-79
2021/09/13 03:20:38;;;;;;;13.10;11.50;;;;;;;16.48;80.85;96391.00;5050976;28;20404;-76
2021/09/13 03:23:04;;;;;;;13.55;11.25;;;;;;;16.48;80.92;96393.75;5051777;28;20037;-75
2021/09/13 03:25:32;;;;;;;16.27;11.48;;;;;;;16.43;81.37;96387.38;5050782;28;20037;-75
2021/09/13 03:27:59;;;;;;;14.45;12.02;;;;;;;16.43;82.04;96390.13;5050731;28;20049;-76
2021/09/13 03:30:25;;;;;;;14.25;11.38;;;;;;;16.42;82.16;96390.47;5050203;28;20457;-75
2021/09/13 03:32:52;;;;;;;13.65;11.30;;;;;;;16.43;81.67;96387.38;5050815;28;20061;-76
2021/09/13 03:35:18;;;;;;;14.88;10.02;;;;;;;16.47;80.89;96386.66;5050412;28;20056;-75
2021/09/13 03:37:44;;;;;;;13.77;11.00;;;;;;;16.44;80.26;96394.47;5050752;28;20041;-75
2021/09/13 03:40:12;;;;;;;12.07;10.35;;;;;;;16.37;80.65;96386.03;5050047;28;20041;-78
2021/09/13 03:42:40;;;;;;;12.68;10.77;;;;;;;16.31;81.05;96384.72;5053574;28;20071;-77
2021/09/13 03:45:07;;;;;;;15.25;11.02;;;;;;;16.31;80.77;96387.47;5053987;28;20045;-75
2021/09/13 03:47:33;;;;;;;12.98;11.25;;;;;;;16.26;81.17;96382.22;5054413;28;20041;-75
2021/09/13 03:50:00;;;;;;;12.70;10.90;;;;;;;16.25;81.46;96386.13;5054394;28;20041;-77
2021/09/13 03:52:26;;;;;;;13.10;10.90;;;;;;;16.26;80.89;96376.75;5053999;28;20045;-76
2021/09/13 03:54:53;;;;;;;14.20;11.13;;;;;;;16.23;80.89;96385.69;5055579;28;20037;-76
2021/09/13 03:57:19;;;;;;;12.35;10.27;;;;;;;16.16;81.12;96383.56;5053667;28;20503;-76
2021/09/13 03:59:47;;;;;;;15.93;11.60;;;;;;;16.11;81.31;96383.00;5054183;28;20514;-76
2021/09/13 04:02:14;;;;;;;14.05;10.55;;;;;;;16.07;81.42;96384.88;5053700;28;20171;-76
2021/09/13 04:04:41;;;;;;;14.68;11.15;;;;;;;16.04;81.37;96391.09;5054139;28;20037;-75
2021/09/13 04:07:15;;;;;;;11.57;9.82;;;;;;;15.99;81.36;96391.34;5053507;28;20423;-76
2021/09/13 04:09:51;;;;;;;12.25;9.73;;;;;;;15.96;81.11;96394.78;5054002;28;20064;-76
2021/09/13 04:12:17;;;;;;;10.48;8.57;;;;;;;15.90;80.88;96381.31;5053513;28;20048;-76
2021/09/13 04:14:44;;;;;;;13.43;8.57;;;;;;;15.86;80.95;96377.66;5054005;28;20064;-75
2021/09/13 04:17:11;;;;;;;10.40;8.38;;;;;;;15.82;80.90;96374.03;5053475;28;20045;-75
2021/09/13 04:19:38;;;;;;;13.02;8.93;;;;;;;15.80;81.10;96372.78;5053895;28;20041;-75
2021/09/13 04:22:04;;;;;;;11.07;8.32;;;;;;;15.79;81.11;96374.72;5053182;28;20052;-76
2021/09/13 04:24:31;;;;;;;10.07;8.13;;;;;;;15.76;80.99;96369.94;5066834;28;20043;-76
2021/09/13 04:26:57;;;;;;;10.57;8.05;;;;;;;15.76;81.14;96369.94;5073491;28;20542;-76
2021/09/13 04:29:24;;;;;;;15.77;12.90;;;;;;;15.77;81.05;96371.53;5072996;28;20090;-77
2021/09/13 04:31:50;;;;;;;12.18;10.82;;;;;;;15.79;81.31;96371.97;5073590;28;20380;-76
2021/09/13 04:34:18;;;;;;;12.20;9.23;;;;;;;15.85;80.87;96373.31;5072961;28;20053;-75
2021/09/13 04:36:44;;;;;;;12.70;8.15;;;;;;;15.83;80.35;96369.34;5073477;28;20036;-76
2021/09/13 04:39:11;;;;;;;10.75;8.73;;;;;;;15.74;80.17;96372.22;5073135;28;20052;-76
2021/09/13 04:41:37;;;;;;;11.50;8.30;;;;;;;15.73;80.36;96373.38;5073445;28;20045;-77
2021/09/13 04:44:04;;;;;;;11.55;9.25;;;;;;;15.69;80.52;96372.50;5072797;28;20048;-75
2021/09/13 04:46:31;;;;;;;13.32;9.00;;;;;;;15.66;80.75;96370.47;5073248;28;20051;-76
2021/09/13 04:48:57;;;;;;;10.23;8.02;;;;;;;15.65;80.96;96369.63;5073362;28;20044;-75
2021/09/13 04:51:26;;;;;;;9.23;7.97;;;;;;;15.64;81.06;96367.25;5072665;28;20049;-76
2021/09/13 04:53:53;;;;;;;12.00;8.20;;;;;;;15.64;81.26;96367.25;5072022;28;20098;-75
2021/09/13 04:56:19;;;;;;;10.88;8.88;;;;;;;15.69;80.96;96374.44;5072720;28;20049;-76
2021/09/13 04:58:46;;;;;;;10.40;7.90;;;;;;;15.74;80.36;96372.22;5072870;28;20418;-75
2021/09/13 05:01:12;;;;;;;10.23;7.80;;;;;;;15.73;80.51;96364.34;5072736;28;20044;-76
2021/09/13 05:03:38;;;;;;;12.30;8.10;;;;;;;15.68;80.73;96372.84;5073030;28;20047;-76
2021/09/13 05:06:05;;;;;;;9.93;8.13;;;;;;;15.64;80.62;96372.75;5072618;28;20051;-75
2021/09/13 05:08:33;;;;;;;11.25;8.52;;;;;;;15.61;80.95;96373.44;5072950;28;20052;-75
2021/09/13 05:11:00;;;;;;;12.73;8.07;;;;;;;15.62;81.32;96375.00;5072839;28;20044;-76
2021/09/13 05:13:27;;;;;;;13.80;8.63;;;;;;;15.63;81.31;96374.69;5072670;28;20044;-75
2021/09/13 05:15:53;;;;;;;16.02;8.02;;;;;;;15.68;80.86;96384.63;5072824;28;20051;-75
2021/09/13 05:18:20;;;;;;;10.95;8.48;;;;;;;15.72;80.30;96373.75;5072194;28;20056;-75
2021/09/13 05:20:46;;;;;;;11.13;8.32;;;;;;;15.69;80.66;96377.97;5070734;28;20056;-76
2021/09/13 05:23:13;;;;;;;12.90;8.18;;;;;;;15.66;80.83;96375.94;5067692;28;20056;-75
2021/09/13 05:25:41;;;;;;;11.15;8.05;;;;;;;15.62;80.78;96386.78;5049654;28;20048;-75
2021/09/13 05:28:07;;;;;;;12.35;8.68;;;;;;;15.58;80.73;96383.13;5050619;28;20487;-75
2021/09/13 05:30:34;;;;;;;11.43;8.77;;;;;;;15.57;81.04;96378.00;5052302;28;20515;-75
2021/09/13 05:33:00;;;;;;;9.43;8.00;;;;;;;15.64;80.76;96378.22;5052398;28;20081;-75
2021/09/13 05:35:27;;;;;;;11.80;7.30;;;;;;;15.70;80.28;96385.06;5052455;28;20053;-76
2021/09/13 05:37:53;;;;;;;11.27;7.97;;;;;;;15.76;79.85;96383.66;5052892;28;20044;-75
2021/09/13 05:40:20;;;;;;;11.75;8.23;;;;;;;15.72;80.26;96385.53;5052148;28;20045;-75
2021/09/13 05:42:47;;;;;;;9.18;8.13;;;;;;;15.71;80.73;96383.91;5052178;28;20041;-76
2021/09/13 05:45:14;;;;;;;8.18;7.15;;;;;;;15.76;80.77;96397.38;5051541;28;20049;-75
2021/09/13 05:47:40;;;;;;;10.65;8.23;;;;;;;15.82;80.62;96396.00;5051935;28;20056;-75
2021/09/13 05:50:08;;;;;;;12.65;8.00;;;;;;;15.85;80.71;96395.28;5051730;28;20048;-75
2021/09/13 05:52:34;;;;;;;11.23;8.10;;;;;;;15.86;80.47;96401.56;5052244;28;20048;-75
2021/09/13 05:55:02;;;;;;;11.73;9.02;;;;;;;15.87;80.85;96398.50;5053466;28;20048;-75
2021/09/13 05:57:28;;;;;;;11.98;9.20;;;;;;;15.94;81.08;96395.13;5051788;28;20048;-75
2021/09/13 05:59:56;;;;;;;14.70;10.50;;;;;;;16.00;80.81;96407.47;5051800;28;20045;-76
2021/09/13 06:02:23;;;;;;;12.57;9.80;;;;;;;16.06;81.30;96405.25;5051597;28;20530;-75
2021/09/13 06:04:49;;;;;;;15.02;9.75;;;;;;;16.13;81.07;96410.91;5051033;28;20076;-77
2021/09/13 06:07:16;;;;;;;28.65;10.63;;;;;;;16.19;80.57;96404.03;5051321;28;20055;-75
2021/09/13 06:09:42;;;;;;;21.52;10.57;;;;;;;16.26;80.38;96409.72;5051694;28;20045;-75
2021/09/13 06:12:11;;;;;;;17.92;10.82;;;;;;;16.35;80.37;96404.84;5050625;28;20037;-75
2021/09/13 06:14:37;;;;;;;14.50;11.77;;;;;;;16.42;80.48;96407.75;5051561;28;20045;-75
2021/09/13 06:17:05;;;;;;;15.60;11.70;;;;;;;16.53;80.98;96412.72;5051300;28;20045;-75
2021/09/13 06:19:31;;;;;;;16.17;13.35;;;;;;;16.60;81.26;96407.41;5051638;28;20053;-75
2021/09/13 06:21:58;;;;;;;17.95;12.43;;;;;;;16.69;81.25;96411.56;5051552;28;20048;-75
2021/09/13 06:24:24;;;;;;;17.98;13.52;;;;;;;16.79;80.85;96413.00;5051858;28;20045;-75
2021/09/13 06:26:51;;;;;;;17.67;14.48;;;;;;;16.84;80.91;96412.75;5051518;28;20041;-75
2021/09/13 06:29:17;;;;;;;18.27;14.23;;;;;;;16.94;80.60;96414.94;5050849;28;20048;-75
2021/09/13 06:31:44;;;;;;;18.88;14.68;;;;;;;17.05;80.59;96417.16;5051524;28;20048;-76
2021/09/13 06:34:15;;;;;;;18.50;14.98;;;;;;;17.07;80.70;96410.16;5050946;28;20049;-74
2021/09/13 06:36:43;;;;;;;19.77;15.32;;;;;;;17.18;80.39;96413.13;5051338;28;20041;-76
2021/09/13 06:39:09;;;;;;;17.88;14.15;;;;;;;17.26;80.54;96417.63;5050879;28;20048;-75
2021/09/13 06:41:36;;;;;;;23.35;18.42;;;;;;;17.34;80.55;96418.59;5051192;28;20119;-75
2021/09/13 06:44:03;;;;;;;20.95;15.57;;;;;;;17.35;80.06;96417.44;5050917;28;20033;-75
2021/09/13 06:46:41;;;;;;;21.85;15.65;;;;;;;17.35;80.05;96426.47;5051070;28;20068;-75
2021/09/13 06:49:07;;;;;;;19.13;14.68;;;;;;;17.49;79.18;96426.00;5050939;28;20045;-75
2021/09/13 06:51:35;;;;;;;19.10;14.38;;;;;;;17.63;78.88;96426.28;5067720;28;20040;-75
2021/09/13 06:54:02;;;;;;;20.58;14.40;;;;;;;17.72;79.15;96431.59;5063925;28;20056;-75
2021/09/13 06:56:28;;;;;;;21.83;15.55;;;;;;;17.84;79.14;96436.97;5051061;28;20407;-76
2021/09/13 06:58:55;;;;;;;17.67;13.70;;;;;;;17.95;78.80;96437.19;5050739;28;20037;-75
2021/09/13 07:01:22;;;;;;;17.55;14.63;;;;;;;18.04;78.81;96439.72;5050608;28;20053;-75
2021/09/13 07:03:49;;;;;;;20.60;15.65;;;;;;;18.09;78.50;96442.97;5051008;28;20049;-76
2021/09/13 07:06:16;;;;;;;17.70;15.23;;;;;;;18.16;77.08;96443.09;5050502;28;20052;-75
2021/09/13 07:08:43;;;;;;;19.13;15.52;;;;;;;18.25;76.25;96440.13;5050645;28;20523;-77
2021/09/13 07:11:10;;;;;;;18.33;14.93;;;;;;;18.31;76.49;96438.66;5049360;28;20499;-75
2021/09/13 07:13:36;;;;;;;17.85;13.95;;;;;;;18.60;75.46;96444.69;5049943;28;20407;-76
2021/09/13 07:16:03;;;;;;;16.83;13.20;;;;;;;19.03;73.67;96441.50;5052717;28;20048;-76
2021/09/13 07:18:30;;;;;;;16.52;14.20;;;;;;;19.39;72.40;96449.50;5061680;28;20041;-75
2021/09/13 07:20:56;;;;;;;19.40;14.30;;;;;;;19.65;71.22;96445.94;5074815;28;20047;-76
2021/09/13 07:23:22;;;;;;;16.98;12.20;;;;;;;20.00;70.12;96449.16;5073404;28;20041;-75
2021/09/13 07:25:50;;;;;;;13.38;11.27;;;;;;;20.42;68.14;96442.50;5054416;28;20037;-74
2021/09/13 07:28:17;;;;;;;13.40;11.55;;;;;;;20.87;66.30;96448.88;5053856;28;20045;-74
2021/09/13 07:30:43;;;;;;;13.27;11.05;;;;;;;21.19;64.59;96451.09;5054512;28;20520;-74
2021/09/13 07:33:10;;;;;;;13.77;11.18;;;;;;;21.43;64.73;96450.50;5054087;28;20725;-75
2021/09/13 07:35:36;;;;;;;14.25;10.45;;;;;;;21.61;63.17;96456.97;5064353;28;20414;-74
2021/09/13 07:38:03;;;;;;;14.40;10.45;;;;;;;21.79;61.78;96456.25;5060659;28;20527;-73
2021/09/13 07:40:29;;;;;;;13.27;10.73;;;;;;;21.96;61.11;96451.97;5054604;28;20044;-74
2021/09/13 07:42:57;;;;;;;13.50;9.27;;;;;;;22.22;59.85;96456.44;5055278;28;20380;-74
2021/09/13 07:45:24;;;;;;;13.30;10.52;;;;;;;22.24;58.48;96459.59;5074128;28;20041;-74
2021/09/13 07:47:51;;;;;;;13.18;9.98;;;;;;;22.16;58.19;96460.78;5074266;28;20045;-74
2021/09/13 07:50:18;;;;;;;13.50;10.43;;;;;;;22.24;58.61;96465.97;5073939;28;20088;-75
2021/09/13 07:52:45;;;;;;;13.73;11.02;;;;;;;22.44;58.62;96469.19;5074335;28;20407;-75
2021/09/13 07:55:11;;;;;;;12.80;9.88;;;;;;;22.72;57.57;96474.03;5057549;28;20053;-76
2021/09/13 07:57:38;;;;;;;12.52;9.95;;;;;;;23.31;57.88;96476.44;5054387;28;20047;-76
2021/09/13 08:00:07;;;;;;;12.05;9.38;;;;;;;24.03;53.04;96466.78;5053651;28;20041;-74
2021/09/13 08:02:33;;;;;;;9.98;8.38;;;;;;;24.55;50.68;96469.75;5053833;28;20048;-74
2021/09/13 08:05:00;;;;;;;10.68;8.32;;;;;;;24.97;50.71;96465.09;5053614;28;20049;-75
2021/09/13 08:07:27;;;;;;;10.00;8.10;;;;;;;25.01;50.11;96463.06;5052128;28;20044;-75
2021/09/13 08:09:53;;;;;;;9.50;7.70;;;;;;;25.27;50.39;96472.03;5052818;28;20041;-77
2021/09/13 08:12:20;;;;;;;11.52;8.40;;;;;;;25.57;51.34;96469.34;5053552;28;20049;-74
2021/09/13 08:14:46;;;;;;;8.77;7.13;;;;;;;26.06;48.69;96469.28;5054007;28;20055;-75
2021/09/13 08:17:14;;;;;;;7.05;4.90;;;;;;;26.54;44.59;96469.88;5053288;28;20515;-75
2021/09/13 08:19:41;;;;;;;5.93;4.28;;;;;;;27.05;42.49;96469.94;5053743;28;20040;-74
2021/09/13 08:22:07;;;;;;;5.60;4.20;;;;;;;27.03;41.35;96480.72;5053504;28;20081;-74
2021/09/13 08:24:34;;;;;;;6.72;3.92;;;;;;;27.35;41.99;96479.44;5054511;28;20056;-75
2021/09/13 08:27:01;;;;;;;5.57;3.83;;;;;;;27.47;43.99;96476.84;5052878;28;20045;-75
2021/09/13 08:29:27;;;;;;;4.40;3.25;;;;;;;27.72;40.66;96484.00;5053266;28;20044;-75
2021/09/13 08:31:56;;;;;;;5.45;3.47;;;;;;;27.91;38.45;96482.47;5053673;28;20040;-75
2021/09/13 08:34:24;;;;;;;5.70;3.35;;;;;;;28.08;39.86;96487.72;5053129;28;20385;-77
2021/09/13 08:36:50;;;;;;;4.57;3.00;;;;;;;28.41;39.57;96482.28;5053513;28;20048;-74
2021/09/13 08:39:17;;;;;;;5.70;3.47;;;;;;;28.81;37.20;96485.78;5053118;28;20045;-75
2021/09/13 08:41:45;;;;;;;4.60;3.80;;;;;;;28.84;38.90;96486.97;5053481;28;20041;-77
2021/09/13 08:44:12;;;;;;;4.68;3.50;;;;;;;28.52;38.88;96482.06;5053111;28;20064;-76
2021/09/13 08:46:43;;;;;;;5.55;3.58;;;;;;;27.82;40.22;96491.41;5053034;28;20495;-76
2021/09/13 08:49:11;;;;;;;5.35;3.83;;;;;;;27.16;41.32;96489.34;5052748;28;20503;-76
2021/09/13 08:51:39;;;;;;;5.72;3.53;;;;;;;27.11;40.73;96493.41;5053214;28;20049;-77
2021/09/13 08:54:09;;;;;;;5.40;3.83;;;;;;;27.36;42.78;96497.81;5053536;28;20415;-77
2021/09/13 08:56:40;;;;;;;6.70;4.60;;;;;;;27.58;41.61;96493.44;5053563;28;20071;-77
2021/09/13 08:59:11;;;;;;;6.53;4.28;;;;;;;27.77;41.60;96495.53;5053781;28;20044;-76
2021/09/13 09:01:38;;;;;;;5.10;4.07;;;;;;;27.95;41.29;96500.00;5053907;28;20045;-77
2021/09/13 09:04:07;;;;;;;6.07;3.85;;;;;;;27.59;42.91;96500.59;5053898;28;20037;-76
2021/09/13 09:06:35;;;;;;;5.03;4.22;;;;;;;26.99;42.99;96503.16;5053760;28;20037;-77
2021/09/13 09:09:06;;;;;;;5.97;4.00;;;;;;;26.39;43.27;96506.75;5053350;28;20049;-77
2021/09/13 09:12:04;;;;;;;4.63;3.85;;;;;;;26.00;45.73;96494.84;5053604;28;20124;-74
2021/09/13 09:14:35;;;;;;;6.30;4.70;;;;;;;25.63;44.71;96498.41;5053429;28;20044;-76
2021/09/13 09:17:04;;;;;;;5.47;4.15;;;;;;;25.31;46.95;96498.66;5052968;28;20657;-72
2021/09/13 09:19:31;;;;;;;6.82;5.25;;;;;;;25.16;45.84;96498.00;5053365;28;20049;-76
2021/09/13 09:21:58;;;;;;;5.28;4.53;;;;;;;25.09;47.41;96495.25;5052983;28;20052;-76
2021/09/13 09:24:27;;;;;;;7.28;4.97;;;;;;;24.93;47.99;96494.94;5052985;28;20056;-76
2021/09/13 09:27:02;;;;;;;8.27;4.88;;;;;;;24.79;48.16;96492.25;5052926;28;20037;-78
2021/09/13 09:29:30;;;;;;;5.82;4.68;;;;;;;24.62;48.78;96491.97;5052438;28;20108;-77
2021/09/13 09:31:59;;;;;;;6.82;4.97;;;;;;;24.32;47.82;96503.59;5052793;28;20040;-77
2021/09/13 09:34:27;;;;;;;5.95;4.63;;;;;;;24.12;49.90;96503.31;5051698;28;20045;-76
2021/09/13 09:37:10;;;;;;;10.30;5.75;;;;;;;23.90;53.22;96505.34;5052475;28;20049;-77
2021/09/13 09:39:39;;;;;;;;;;;;;;;23.86;55.12;96498.22;5051388;28;20124;-77
2021/09/13 09:42:08;;;;;;;6.45;5.28;;;;;;;23.90;50.01;96501.78;5051959;28;20299;-76
2021/09/13 09:44:35;;;;;;;5.70;5.10;;;;;;;23.81;54.14;96499.44;5052300;28;20041;-78
2021/09/13 09:47:05;;;;;;;15.48;7.90;;;;;;;23.83;53.49;96490.69;5051760;28;20037;-77
2021/09/13 09:49:41;;;;;;;7.70;5.65;;;;;;;24.02;50.40;96498.56;5052192;28;20044;-74
2021/09/13 09:52:08;;;;;;;5.45;4.60;;;;;;;24.05;51.32;96497.75;5051883;28;20055;-75
2021/09/13 09:54:35;;;;;;;5.80;4.43;;;;;;;24.00;49.60;96492.59;5052247;28;20045;-76
2021/09/13 09:57:05;;;;;;;6.78;4.60;;;;;;;24.09;50.88;96501.31;5051612;28;20045;-73
2021/09/13 09:59:34;;;;;;;4.45;3.70;;;;;;;24.30;48.96;96491.31;5051891;28;20049;-74
2021/09/13 10:02:11;;;;;;;6.75;4.03;;;;;;;24.47;47.56;96484.88;5052013;28;20376;-76
2021/09/13 10:04:37;;;;;;;5.68;3.28;;;;;;;24.68;48.81;96490.31;5058858;28;20044;-76
2021/09/13 10:07:04;;;;;;;4.55;3.22;;;;;;;24.88;47.34;96493.38;5071097;28;20049;-77
2021/09/13 10:09:31;;;;;;;4.70;3.53;;;;;;;25.01;47.78;96479.78;5071486;28;20422;-77
2021/09/13 10:12:00;;;;;;;6.07;3.70;;;;;;;25.06;48.41;96479.38;5071288;28;20049;-76
2021/09/13 10:14:30;;;;;;;5.07;3.50;;;;;;;25.15;46.76;96476.91;5071032;28;20040;-77
2021/09/13 10:16:57;;;;;;;9.30;3.33;;;;;;;25.25;45.99;96476.00;5070597;28;20041;-76
2021/09/13 10:19:25;;;;;;;18.25;4.85;;;;;;;25.34;46.29;96472.75;5069926;28;20044;-76
2021/09/13 10:21:53;;;;;;;5.63;4.15;;;;;;;25.35;45.20;96477.13;5071019;28;20040;-77
2021/09/13 10:24:21;;;;;;;6.07;4.32;;;;;;;25.22;45.07;96468.50;5061569;28;20064;-76
2021/09/13 10:26:50;;;;;;;4.78;3.70;;;;;;;25.11;46.37;96459.44;5051006;28;20037;-75
2021/09/13 10:29:19;;;;;;;5.53;4.22;;;;;;;24.98;47.71;96463.88;5050490;28;20517;-74
2021/09/13 10:32:12;;;;;;;6.95;4.15;;;;;;;24.89;49.64;96455.19;5051296;28;20040;-75
2021/09/13 10:34:50;;;;;;;355.50;32.92;;;;;;;24.77;49.54;96448.13;5050203;28;20056;-74
2021/09/13 10:37:18;;;;;;;78.43;9.60;;;;;;;24.69;49.60;96452.94;5050598;28;20056;-75
2021/09/13 10:40:00;;;;;;;23.08;6.13;;;;;;;24.62;49.82;96452.97;5051216;28;20069;-76
2021/09/13 10:42:29;;;;;;;5.72;3.78;;;;;;;24.51;49.22;96446.69;5050514;28;20048;-75
2021/09/13 10:45:07;;;;;;;46.75;6.80;;;;;;;24.39;51.26;96447.16;5051460;28;20052;-75
2021/09/13 10:47:35;;;;;;;35.45;6.35;;;;;;;24.24;50.70;96453.97;5050294;28;20068;-78
2021/09/13 10:50:21;;;;;;;13.32;5.38;;;;;;;24.02;51.30;96453.28;5050283;28;20048;-77
2021/09/13 10:52:49;;;;;;;11.60;4.95;;;;;;;23.93;53.40;96451.72;5050316;28;20046;-77
2021/09/13 10:55:27;;;;;;;7.28;4.82;;;;;;;23.93;52.28;96456.47;5062737;28;20499;-75
2021/09/13 10:57:56;;;;;;;10.38;4.78;;;;;;;24.04;54.74;96440.53;5070794;28;20044;-76
2021/09/13 11:00:54;;;;;;;22.85;6.25;;;;;;;24.08;53.71;96441.31;5070384;28;20047;-76
2021/09/13 11:03:43;;;;;;;17.75;5.50;;;;;;;24.12;53.13;96442.09;5070073;28;20071;-76
2021/09/13 11:06:36;;;;;;;8.93;5.68;;;;;;;24.08;53.33;96438.53;5069240;28;20063;-75
2021/09/13 11:09:05;;;;;;;7.07;5.40;;;;;;;24.00;51.89;96434.19;5070434;28;20140;-75
2021/09/13 11:11:33;;;;;;;9.63;5.63;;;;;;;23.91;51.52;96425.50;5070643;28;20069;-75
2021/09/13 11:14:02;;;;;;;8.30;5.35;;;;;;;23.91;53.25;96431.88;5070964;28;20037;-75
2021/09/13 11:16:31;;;;;;;12.85;4.72;;;;;;;23.95;53.12;96423.50;5070130;28;20120;-76
2021/09/13 11:19:00;;;;;;;7.78;6.55;;;;;;;23.89;51.52;96430.66;5070589;28;20045;-76
2021/09/13 11:21:28;;;;;;;9.52;5.70;;;;;;;23.92;52.88;96421.53;5070008;28;20041;-75
2021/09/13 11:23:58;;;;;;;20.42;7.57;;;;;;;23.96;55.37;96427.84;5064095;28;20048;-76
2021/09/13 11:26:31;;;;;;;16.92;5.32;;;;;;;24.00;54.04;96427.84;5049012;28;20048;-75
2021/09/13 11:28:59;;;;;;;10.30;5.93;;;;;;;24.01;51.30;96421.88;5050526;28;20049;-75